Terminal Aerodrome Forecast
Issued by NWS Jackson, MS

Home | Current Version | Previous Version | Text Only | Print | Product List | Glossary On
Versions: 1 2 3 4 5 6 7 8 9 10 11 12
000
FTUS44 KJAN 222300 RRA
TAFHBG
TAF
KHBG 222352Z 2300/2324 13006KT P6SM FEW010 BKN028 OVC200
     FM230400 13008KT P6SM VCSH BKN015 OVC025
     FM231000 13008KT 4SM -TSRA BR OVC015CB
     FM231300 18011G25KT 2SM TSRA BR OVC007CB
     FM231700 21013G24KT P6SM VCSH FEW040=

USA.gov is the U.S. government's official web portal to all federal, state and local government web resources and services.